This is the latest recevied weather packets stored in our database for station/object N2XP-2. If no packets are shown the sender has not sent any weather packets the latest 10 day(s).
| Time | Temp. | Humidity | Pressure | Rain* | Wind** | Luminosity | Snow |
|---|---|---|---|---|---|---|---|
| 1777491890 | 15.56° C | 69% | 1013.1 hPa | 0 mm | 0.45 m/s, 113° | - | - |
| 1777491754 | 15° C | 73% | 1013 hPa | 0 mm | 1.34 m/s, 219° | - | - |
| 1777491455 | 15° C | 73% | 1013.1 hPa | 0 mm | 1.34 m/s, 20° | - | - |
| 1777491156 | 15° C | 72% | 1013.2 hPa | 0 mm | 0.45 m/s, 120° | - | - |
| 1777490852 | 15° C | 71% | 1013.2 hPa | 0 mm | 0.89 m/s, 111° | - | - |
| 1777490553 | 15.56° C | 70% | 1013.2 hPa | 0 mm | 0.89 m/s, 179° | - | - |
| 1777490254 | 15.56° C | 69% | 1013.1 hPa | 0 mm | 0.45 m/s, 113° | - | - |
| 1777489982 | 16.11° C | 67% | 1014 hPa | 0 mm | 0.89 m/s, 152° | - | - |
| 1777489972 | 16.11° C | 68% | 1014.2 hPa | 0 mm | 0.89 m/s, 173° | - | - |
| 1777489951 | 15.56° C | 68% | 1013.2 hPa | 0 mm | 0.89 m/s, 128° | - | - |
| 1777489651 | 15.56° C | 68% | 1013.4 hPa | 0 mm | 0.89 m/s, 218° | - | - |
| 1777489351 | 16.11° C | 67% | 1013.7 hPa | 0 mm | 0.45 m/s, 100° | - | - |
| 1777489048 | 16.11° C | 67% | 1013.8 hPa | 0 mm | 0.89 m/s, 94° | - | - |
| 1777488749 | 16.11° C | 67% | 1014 hPa | 0 mm | 0.89 m/s, 152° | - | - |
| 1777488449 | 16.11° C | 68% | 1014.2 hPa | 0 mm | 0.89 m/s, 173° | - | - |
| 1777488145 | 16.11° C | 66% | 1014.1 hPa | 0 mm | 0.89 m/s, 127° | - | - |
| 1777488054 | 17.22° C | 65% | 1014.3 hPa | 0 mm | 0.45 m/s, 100° | - | - |
| 1777488049 | 17.22° C | 65% | 1014.6 hPa | 0 mm | 0.89 m/s, 107° | - | - |
| 1777487846 | 16.67° C | 66% | 1014.2 hPa | 0 mm | 1.34 m/s, 150° | - | - |
| 1777487244 | 17.22° C | 65% | 1014.1 hPa | 0 mm | 0.89 m/s, 77° | - | - |
| 1777486943 | 17.22° C | 65% | 1014.2 hPa | 0 mm | 1.34 m/s, 159° | - | - |
| 1777486644 | 17.22° C | 65% | 1014.3 hPa | 0 mm | 0.45 m/s, 100° | - | - |
| 1777486399 | 17.22° C | 65% | 1014.6 hPa | 0 mm | 0.89 m/s, 107° | - | - |
| 1777486342 | 17.22° C | 65% | 1014.6 hPa | 0 mm | 0.89 m/s, 107° | - | - |
| 1777486138 | 17.22° C | 66% | 1014.2 hPa | 0 mm | 0.45 m/s, 214° | - | - |
* Rain latest hour (hover to see other rain measurements)
** Current wind speed in m/s (hover to see current wind gust speed)